sensor_id;sensor_type;location;lat;lon;timestamp;temperature;humidity
29413;DHT22;16389;50.126;8.450;2022-07-22T00:00:59;18.30;99.90
29413;DHT22;16389;50.126;8.450;2022-07-22T00:03:25;18.30;99.90
29413;DHT22;16389;50.126;8.450;2022-07-22T00:05:50;18.20;99.90
29413;DHT22;16389;50.126;8.450;2022-07-22T00:08:16;18.30;99.90
29413;DHT22;16389;50.126;8.450;2022-07-22T00:10:41;18.20;99.90
29413;DHT22;16389;50.126;8.450;2022-07-22T00:13:07;18.30;99.90
29413;DHT22;16389;50.126;8.450;2022-07-22T00:15:32;18.20;99.90
29413;DHT22;16389;50.126;8.450;2022-07-22T00:17:58;18.20;99.90
29413;DHT22;16389;50.126;8.450;2022-07-22T00:20:23;18.20;99.90
29413;DHT22;16389;50.126;8.450;2022-07-22T00:22:49;18.10;99.90
29413;DHT22;16389;50.126;8.450;2022-07-22T00:25:14;18.00;99.90
29413;DHT22;16389;50.126;8.450;2022-07-22T00:27:40;18.00;99.90
29413;DHT22;16389;50.126;8.450;2022-07-22T00:30:05;18.00;99.90
29413;DHT22;16389;50.126;8.450;2022-07-22T00:32:31;18.00;99.90
29413;DHT22;16389;50.126;8.450;2022-07-22T00:34:56;17.90;99.90
29413;DHT22;16389;50.126;8.450;2022-07-22T00:37:22;17.90;99.90
29413;DHT22;16389;50.126;8.450;2022-07-22T00:39:47;17.90;99.90
29413;DHT22;16389;50.126;8.450;2022-07-22T00:42:13;17.90;99.90
29413;DHT22;16389;50.126;8.450;2022-07-22T00:44:39;17.80;99.90
29413;DHT22;16389;50.126;8.450;2022-07-22T00:47:04;17.90;99.90
29413;DHT22;16389;50.126;8.450;2022-07-22T00:49:30;17.90;99.90
29413;DHT22;16389;50.126;8.450;2022-07-22T00:51:55;17.90;99.90
29413;DHT22;16389;50.126;8.450;2022-07-22T00:54:21;17.90;99.90
29413;DHT22;16389;50.126;8.450;2022-07-22T00:56:47;17.90;99.90
29413;DHT22;16389;50.126;8.450;2022-07-22T00:59:12;18.00;99.90
29413;DHT22;16389;50.126;8.450;2022-07-22T01:01:38;17.90;99.90
29413;DHT22;16389;50.126;8.450;2022-07-22T01:04:03;17.90;99.90
29413;DHT22;16389;50.126;8.450;2022-07-22T01:06:29;17.90;99.90
29413;DHT22;16389;50.126;8.450;2022-07-22T01:08:55;17.90;99.90
29413;DHT22;16389;50.126;8.450;2022-07-22T01:11:21;17.80;99.90
29413;DHT22;16389;50.126;8.450;2022-07-22T01:13:47;17.90;99.90
29413;DHT22;16389;50.126;8.450;2022-07-22T01:16:13;17.90;99.90
29413;DHT22;16389;50.126;8.450;2022-07-22T01:18:39;17.90;99.90
29413;DHT22;16389;50.126;8.450;2022-07-22T01:21:05;17.90;99.90
29413;DHT22;16389;50.126;8.450;2022-07-22T01:23:31;17.90;99.90
29413;DHT22;16389;50.126;8.450;2022-07-22T01:25:56;18.00;99.90
29413;DHT22;16389;50.126;8.450;2022-07-22T01:28:22;18.00;99.90
29413;DHT22;16389;50.126;8.450;2022-07-22T01:30:47;17.90;99.90
29413;DHT22;16389;50.126;8.450;2022-07-22T01:33:15;18.00;99.90
29413;DHT22;16389;50.126;8.450;2022-07-22T01:35:41;18.00;99.90
29413;DHT22;16389;50.126;8.450;2022-07-22T01:38:06;18.00;99.90
29413;DHT22;16389;50.126;8.450;2022-07-22T01:40:32;18.10;99.90
29413;DHT22;16389;50.126;8.450;2022-07-22T01:42:58;18.10;99.90
29413;DHT22;16389;50.126;8.450;2022-07-22T01:45:23;18.20;99.90
29413;DHT22;16389;50.126;8.450;2022-07-22T01:47:49;18.20;99.90
29413;DHT22;16389;50.126;8.450;2022-07-22T01:50:14;18.30;99.90
29413;DHT22;16389;50.126;8.450;2022-07-22T01:52:40;18.20;99.90
29413;DHT22;16389;50.126;8.450;2022-07-22T01:55:06;18.20;99.90
29413;DHT22;16389;50.126;8.450;2022-07-22T01:57:32;18.20;99.90
29413;DHT22;16389;50.126;8.450;2022-07-22T01:59:57;18.30;99.90
29413;DHT22;16389;50.126;8.450;2022-07-22T02:02:23;18.30;99.90
29413;DHT22;16389;50.126;8.450;2022-07-22T02:04:48;18.20;99.90
29413;DHT22;16389;50.126;8.450;2022-07-22T02:07:14;18.20;99.90
29413;DHT22;16389;50.126;8.450;2022-07-22T02:09:39;18.10;99.90
29413;DHT22;16389;50.126;8.450;2022-07-22T02:12:05;18.10;99.90
29413;DHT22;16389;50.126;8.450;2022-07-22T02:14:30;18.10;99.90
29413;DHT22;16389;50.126;8.450;2022-07-22T02:16:56;18.10;99.90
29413;DHT22;16389;50.126;8.450;2022-07-22T02:19:21;18.00;99.90
29413;DHT22;16389;50.126;8.450;2022-07-22T02:21:47;17.90;99.90
29413;DHT22;16389;50.126;8.450;2022-07-22T02:24:12;17.90;99.90
29413;DHT22;16389;50.126;8.450;2022-07-22T02:26:38;17.80;99.90
29413;DHT22;16389;50.126;8.450;2022-07-22T02:29:03;17.70;99.90
29413;DHT22;16389;50.126;8.450;2022-07-22T02:31:29;17.70;99.90
29413;DHT22;16389;50.126;8.450;2022-07-22T02:33:54;17.60;99.90
29413;DHT22;16389;50.126;8.450;2022-07-22T02:36:20;17.50;99.90
29413;DHT22;16389;50.126;8.450;2022-07-22T02:38:46;17.50;99.90
29413;DHT22;16389;50.126;8.450;2022-07-22T02:41:11;17.40;99.90
29413;DHT22;16389;50.126;8.450;2022-07-22T02:43:37;17.30;99.90
29413;DHT22;16389;50.126;8.450;2022-07-22T02:46:03;17.40;99.90
29413;DHT22;16389;50.126;8.450;2022-07-22T02:48:28;17.30;99.90
29413;DHT22;16389;50.126;8.450;2022-07-22T02:50:54;17.30;99.90
29413;DHT22;16389;50.126;8.450;2022-07-22T02:53:20;17.30;99.90
29413;DHT22;16389;50.126;8.450;2022-07-22T02:55:45;17.30;99.90
29413;DHT22;16389;50.126;8.450;2022-07-22T02:58:11;17.30;99.90
29413;DHT22;16389;50.126;8.450;2022-07-22T03:00:37;17.20;99.90
29413;DHT22;16389;50.126;8.450;2022-07-22T03:03:06;17.20;99.90
29413;DHT22;16389;50.126;8.450;2022-07-22T03:05:31;17.20;99.90
29413;DHT22;16389;50.126;8.450;2022-07-22T03:07:57;17.10;99.90
29413;DHT22;16389;50.126;8.450;2022-07-22T03:10:23;17.20;99.90
29413;DHT22;16389;50.126;8.450;2022-07-22T03:12:49;17.10;99.90
29413;DHT22;16389;50.126;8.450;2022-07-22T03:15:14;17.10;99.90
29413;DHT22;16389;50.126;8.450;2022-07-22T03:17:40;17.10;99.90
29413;DHT22;16389;50.126;8.450;2022-07-22T03:20:07;17.10;99.90
29413;DHT22;16389;50.126;8.450;2022-07-22T03:22:34;17.00;99.90
29413;DHT22;16389;50.126;8.450;2022-07-22T03:25:00;17.00;99.90
29413;DHT22;16389;50.126;8.450;2022-07-22T03:27:25;17.00;99.90
29413;DHT22;16389;50.126;8.450;2022-07-22T03:29:51;17.00;99.90
29413;DHT22;16389;50.126;8.450;2022-07-22T03:32:17;17.00;99.90
29413;DHT22;16389;50.126;8.450;2022-07-22T03:34:43;17.00;99.90
29413;DHT22;16389;50.126;8.450;2022-07-22T03:37:09;16.90;99.90
29413;DHT22;16389;50.126;8.450;2022-07-22T03:39:34;16.90;99.90
29413;DHT22;16389;50.126;8.450;2022-07-22T03:42:00;16.90;99.90
29413;DHT22;16389;50.126;8.450;2022-07-22T03:44:25;16.90;99.90
29413;DHT22;16389;50.126;8.450;2022-07-22T03:46:51;16.90;99.90
29413;DHT22;16389;50.126;8.450;2022-07-22T03:49:16;16.90;99.90
29413;DHT22;16389;50.126;8.450;2022-07-22T03:51:42;16.90;99.90
29413;DHT22;16389;50.126;8.450;2022-07-22T03:54:08;16.90;99.90
29413;DHT22;16389;50.126;8.450;2022-07-22T03:56:33;16.90;99.90
29413;DHT22;16389;50.126;8.450;2022-07-22T03:58:59;16.90;99.90
29413;DHT22;16389;50.126;8.450;2022-07-22T04:01:24;16.90;99.90
29413;DHT22;16389;50.126;8.450;2022-07-22T04:03:50;16.80;99.90
29413;DHT22;16389;50.126;8.450;2022-07-22T04:06:15;16.80;99.90
29413;DHT22;16389;50.126;8.450;2022-07-22T04:08:41;16.90;99.90
29413;DHT22;16389;50.126;8.450;2022-07-22T04:11:06;16.90;99.90
29413;DHT22;16389;50.126;8.450;2022-07-22T04:13:32;16.90;99.90
29413;DHT22;16389;50.126;8.450;2022-07-22T04:15:57;17.00;99.90
29413;DHT22;16389;50.126;8.450;2022-07-22T04:18:23;17.00;99.90
29413;DHT22;16389;50.126;8.450;2022-07-22T04:20:49;17.00;99.90
29413;DHT22;16389;50.126;8.450;2022-07-22T04:23:14;17.00;99.90
29413;DHT22;16389;50.126;8.450;2022-07-22T04:25:40;17.00;99.90
29413;DHT22;16389;50.126;8.450;2022-07-22T04:28:06;17.10;99.90
29413;DHT22;16389;50.126;8.450;2022-07-22T04:30:31;17.10;99.90
29413;DHT22;16389;50.126;8.450;2022-07-22T04:32:57;17.00;99.90
29413;DHT22;16389;50.126;8.450;2022-07-22T04:35:24;17.10;99.90
29413;DHT22;16389;50.126;8.450;2022-07-22T04:37:49;17.10;99.90
29413;DHT22;16389;50.126;8.450;2022-07-22T04:40:15;17.10;99.90
29413;DHT22;16389;50.126;8.450;2022-07-22T04:42:40;17.20;99.90
29413;DHT22;16389;50.126;8.450;2022-07-22T04:45:06;17.20;99.90
29413;DHT22;16389;50.126;8.450;2022-07-22T04:47:31;17.20;99.90
29413;DHT22;16389;50.126;8.450;2022-07-22T04:49:57;17.20;99.90
29413;DHT22;16389;50.126;8.450;2022-07-22T04:52:23;17.20;99.90
29413;DHT22;16389;50.126;8.450;2022-07-22T04:54:48;17.20;99.90
29413;DHT22;16389;50.126;8.450;2022-07-22T04:57:14;17.30;99.90
29413;DHT22;16389;50.126;8.450;2022-07-22T04:59:39;17.40;99.90
29413;DHT22;16389;50.126;8.450;2022-07-22T05:02:05;17.40;99.90
29413;DHT22;16389;50.126;8.450;2022-07-22T05:04:30;17.40;99.90
29413;DHT22;16389;50.126;8.450;2022-07-22T05:06:56;17.40;99.90
29413;DHT22;16389;50.126;8.450;2022-07-22T05:09:21;17.50;99.90
29413;DHT22;16389;50.126;8.450;2022-07-22T05:11:47;17.50;99.90
29413;DHT22;16389;50.126;8.450;2022-07-22T05:14:13;17.50;99.90
29413;DHT22;16389;50.126;8.450;2022-07-22T05:16:38;17.50;99.90
29413;DHT22;16389;50.126;8.450;2022-07-22T05:19:04;17.50;99.90
29413;DHT22;16389;50.126;8.450;2022-07-22T05:21:31;17.50;99.90
29413;DHT22;16389;50.126;8.450;2022-07-22T05:23:56;17.60;99.90
29413;DHT22;16389;50.126;8.450;2022-07-22T05:26:22;17.60;99.90
29413;DHT22;16389;50.126;8.450;2022-07-22T05:28:48;17.60;99.90
29413;DHT22;16389;50.126;8.450;2022-07-22T05:31:13;17.60;99.90
29413;DHT22;16389;50.126;8.450;2022-07-22T05:33:39;17.70;99.90
29413;DHT22;16389;50.126;8.450;2022-07-22T05:36:05;17.80;99.90
29413;DHT22;16389;50.126;8.450;2022-07-22T05:38:34;17.80;99.90
29413;DHT22;16389;50.126;8.450;2022-07-22T05:40:59;17.90;99.90
29413;DHT22;16389;50.126;8.450;2022-07-22T05:43:25;18.00;99.90
29413;DHT22;16389;50.126;8.450;2022-07-22T05:45:51;18.20;99.90
29413;DHT22;16389;50.126;8.450;2022-07-22T05:48:16;18.30;99.90
29413;DHT22;16389;50.126;8.450;2022-07-22T05:50:42;18.40;99.90
29413;DHT22;16389;50.126;8.450;2022-07-22T05:53:08;18.60;99.90
29413;DHT22;16389;50.126;8.450;2022-07-22T05:55:33;18.70;99.90
29413;DHT22;16389;50.126;8.450;2022-07-22T05:57:59;18.80;99.90
29413;DHT22;16389;50.126;8.450;2022-07-22T06:00:25;18.90;99.90
29413;DHT22;16389;50.126;8.450;2022-07-22T06:02:51;19.00;99.90
29413;DHT22;16389;50.126;8.450;2022-07-22T06:05:16;19.10;99.90
29413;DHT22;16389;50.126;8.450;2022-07-22T06:07:42;19.20;99.90
29413;DHT22;16389;50.126;8.450;2022-07-22T06:10:08;19.20;99.90
29413;DHT22;16389;50.126;8.450;2022-07-22T06:12:34;19.30;99.90
29413;DHT22;16389;50.126;8.450;2022-07-22T06:14:59;19.50;99.90
29413;DHT22;16389;50.126;8.450;2022-07-22T06:17:25;19.50;99.90
29413;DHT22;16389;50.126;8.450;2022-07-22T06:19:50;19.70;99.90
29413;DHT22;16389;50.126;8.450;2022-07-22T06:22:16;19.80;99.90
29413;DHT22;16389;50.126;8.450;2022-07-22T06:24:45;20.00;99.90
29413;DHT22;16389;50.126;8.450;2022-07-22T06:27:11;20.10;99.90
29413;DHT22;16389;50.126;8.450;2022-07-22T06:29:36;20.10;99.90
29413;DHT22;16389;50.126;8.450;2022-07-22T06:32:02;20.20;99.90
29413;DHT22;16389;50.126;8.450;2022-07-22T06:34:28;20.10;99.90
29413;DHT22;16389;50.126;8.450;2022-07-22T06:36:54;20.20;99.90
29413;DHT22;16389;50.126;8.450;2022-07-22T06:39:20;20.20;99.90
29413;DHT22;16389;50.126;8.450;2022-07-22T06:41:47;20.30;99.90
29413;DHT22;16389;50.126;8.450;2022-07-22T06:44:12;20.20;99.90
29413;DHT22;16389;50.126;8.450;2022-07-22T06:46:38;20.00;99.90
29413;DHT22;16389;50.126;8.450;2022-07-22T06:49:04;20.00;99.90
29413;DHT22;16389;50.126;8.450;2022-07-22T06:51:30;20.00;99.90
29413;DHT22;16389;50.126;8.450;2022-07-22T06:53:55;20.00;99.90
29413;DHT22;16389;50.126;8.450;2022-07-22T06:56:21;20.10;99.90
29413;DHT22;16389;50.126;8.450;2022-07-22T06:58:47;20.20;99.90
29413;DHT22;16389;50.126;8.450;2022-07-22T07:01:12;20.40;99.90
29413;DHT22;16389;50.126;8.450;2022-07-22T07:03:38;20.70;99.90
29413;DHT22;16389;50.126;8.450;2022-07-22T07:06:07;20.80;99.90
29413;DHT22;16389;50.126;8.450;2022-07-22T07:08:33;20.90;99.90
29413;DHT22;16389;50.126;8.450;2022-07-22T07:10:59;20.90;99.90
29413;DHT22;16389;50.126;8.450;2022-07-22T07:13:25;20.90;99.90
29413;DHT22;16389;50.126;8.450;2022-07-22T07:15:50;20.90;99.90
29413;DHT22;16389;50.126;8.450;2022-07-22T07:18:16;20.90;99.90
29413;DHT22;16389;50.126;8.450;2022-07-22T07:20:42;20.90;99.90
29413;DHT22;16389;50.126;8.450;2022-07-22T07:23:07;21.00;99.90
29413;DHT22;16389;50.126;8.450;2022-07-22T07:25:33;21.10;99.90
29413;DHT22;16389;50.126;8.450;2022-07-22T07:27:59;21.20;99.90
29413;DHT22;16389;50.126;8.450;2022-07-22T07:30:25;21.30;99.90
29413;DHT22;16389;50.126;8.450;2022-07-22T07:32:50;21.40;99.90
29413;DHT22;16389;50.126;8.450;2022-07-22T07:35:16;21.50;99.90
29413;DHT22;16389;50.126;8.450;2022-07-22T07:37:42;21.50;99.90
29413;DHT22;16389;50.126;8.450;2022-07-22T07:40:08;21.50;99.90
29413;DHT22;16389;50.126;8.450;2022-07-22T07:42:34;21.50;99.90
29413;DHT22;16389;50.126;8.450;2022-07-22T07:45:00;21.50;99.90
29413;DHT22;16389;50.126;8.450;2022-07-22T07:47:26;21.60;99.90
29413;DHT22;16389;50.126;8.450;2022-07-22T07:49:51;21.80;99.90
29413;DHT22;16389;50.126;8.450;2022-07-22T07:52:17;21.90;99.90
29413;DHT22;16389;50.126;8.450;2022-07-22T07:54:44;21.80;99.90
29413;DHT22;16389;50.126;8.450;2022-07-22T07:57:10;21.70;99.90
29413;DHT22;16389;50.126;8.450;2022-07-22T07:59:38;21.60;99.90
29413;DHT22;16389;50.126;8.450;2022-07-22T08:02:05;21.50;99.90
29413;DHT22;16389;50.126;8.450;2022-07-22T08:04:31;21.30;99.90
29413;DHT22;16389;50.126;8.450;2022-07-22T08:06:57;21.40;99.90
29413;DHT22;16389;50.126;8.450;2022-07-22T08:09:23;21.50;99.90
29413;DHT22;16389;50.126;8.450;2022-07-22T08:11:49;21.60;99.90
29413;DHT22;16389;50.126;8.450;2022-07-22T08:14:15;21.70;99.90
29413;DHT22;16389;50.126;8.450;2022-07-22T08:16:40;21.90;99.90
29413;DHT22;16389;50.126;8.450;2022-07-22T08:19:06;22.00;99.90
29413;DHT22;16389;50.126;8.450;2022-07-22T08:21:32;22.10;99.90
29413;DHT22;16389;50.126;8.450;2022-07-22T08:23:57;22.20;99.90
29413;DHT22;16389;50.126;8.450;2022-07-22T08:26:23;22.30;99.90
29413;DHT22;16389;50.126;8.450;2022-07-22T08:28:49;22.60;99.90
29413;DHT22;16389;50.126;8.450;2022-07-22T08:31:15;22.70;99.90
29413;DHT22;16389;50.126;8.450;2022-07-22T08:33:40;22.90;99.90
29413;DHT22;16389;50.126;8.450;2022-07-22T08:36:06;23.00;99.90
29413;DHT22;16389;50.126;8.450;2022-07-22T08:38:32;23.20;99.90
29413;DHT22;16389;50.126;8.450;2022-07-22T08:41:00;23.30;99.90
29413;DHT22;16389;50.126;8.450;2022-07-22T08:43:26;23.50;99.90
29413;DHT22;16389;50.126;8.450;2022-07-22T08:45:52;23.70;99.90
29413;DHT22;16389;50.126;8.450;2022-07-22T08:48:18;24.00;99.90
29413;DHT22;16389;50.126;8.450;2022-07-22T08:50:43;24.20;99.90
29413;DHT22;16389;50.126;8.450;2022-07-22T08:53:11;24.40;99.90
29413;DHT22;16389;50.126;8.450;2022-07-22T08:55:44;24.20;99.90
29413;DHT22;16389;50.126;8.450;2022-07-22T08:58:10;24.20;99.90
29413;DHT22;16389;50.126;8.450;2022-07-22T09:00:38;24.30;99.90
29413;DHT22;16389;50.126;8.450;2022-07-22T09:03:24;24.50;99.90
29413;DHT22;16389;50.126;8.450;2022-07-22T09:05:53;24.70;99.90
29413;DHT22;16389;50.126;8.450;2022-07-22T09:08:20;24.90;99.90
29413;DHT22;16389;50.126;8.450;2022-07-22T09:10:46;25.10;99.90
29413;DHT22;16389;50.126;8.450;2022-07-22T09:13:14;25.00;99.90
29413;DHT22;16389;50.126;8.450;2022-07-22T09:15:54;25.10;99.90
29413;DHT22;16389;50.126;8.450;2022-07-22T09:18:20;25.20;99.90
29413;DHT22;16389;50.126;8.450;2022-07-22T09:20:46;25.40;99.90
29413;DHT22;16389;50.126;8.450;2022-07-22T09:23:21;25.60;99.90
29413;DHT22;16389;50.126;8.450;2022-07-22T09:25:49;25.80;99.90
29413;DHT22;16389;50.126;8.450;2022-07-22T09:28:24;26.10;99.90
29413;DHT22;16389;50.126;8.450;2022-07-22T09:30:53;26.10;99.90
29413;DHT22;16389;50.126;8.450;2022-07-22T09:33:20;26.40;99.40
29413;DHT22;16389;50.126;8.450;2022-07-22T09:35:47;26.40;99.90
29413;DHT22;16389;50.126;8.450;2022-07-22T09:38:14;26.50;98.10
29413;DHT22;16389;50.126;8.450;2022-07-22T09:40:42;26.40;97.80
29413;DHT22;16389;50.126;8.450;2022-07-22T09:43:11;26.30;98.40
29413;DHT22;16389;50.126;8.450;2022-07-22T09:45:54;26.50;98.40
29413;DHT22;16389;50.126;8.450;2022-07-22T09:48:23;26.50;97.80
29413;DHT22;16389;50.126;8.450;2022-07-22T09:50:50;26.80;98.30
29413;DHT22;16389;50.126;8.450;2022-07-22T09:53:17;27.10;98.80
29413;DHT22;16389;50.126;8.450;2022-07-22T09:55:43;27.30;96.70
29413;DHT22;16389;50.126;8.450;2022-07-22T09:58:09;27.60;97.50
29413;DHT22;16389;50.126;8.450;2022-07-22T10:00:36;27.80;96.50
29413;DHT22;16389;50.126;8.450;2022-07-22T10:03:04;27.90;96.20
29413;DHT22;16389;50.126;8.450;2022-07-22T10:05:31;28.30;96.30
29413;DHT22;16389;50.126;8.450;2022-07-22T10:07:58;28.60;95.20
29413;DHT22;16389;50.126;8.450;2022-07-22T10:10:26;28.90;95.10
29413;DHT22;16389;50.126;8.450;2022-07-22T10:12:54;29.30;94.40
29413;DHT22;16389;50.126;8.450;2022-07-22T10:15:21;29.50;92.80
29413;DHT22;16389;50.126;8.450;2022-07-22T10:17:50;29.80;92.10
29413;DHT22;16389;50.126;8.450;2022-07-22T10:20:18;30.00;90.90
29413;DHT22;16389;50.126;8.450;2022-07-22T10:23:07;29.90;90.00
29413;DHT22;16389;50.126;8.450;2022-07-22T10:25:54;29.60;90.40
29413;DHT22;16389;50.126;8.450;2022-07-22T10:28:27;29.70;90.90
29413;DHT22;16389;50.126;8.450;2022-07-22T10:31:23;30.20;91.60
29413;DHT22;16389;50.126;8.450;2022-07-22T10:33:54;30.50;90.10
29413;DHT22;16389;50.126;8.450;2022-07-22T10:36:38;31.00;88.70
29413;DHT22;16389;50.126;8.450;2022-07-22T10:39:11;31.20;83.70
29413;DHT22;16389;50.126;8.450;2022-07-22T10:41:42;31.70;86.10
29413;DHT22;16389;50.126;8.450;2022-07-22T10:44:09;32.20;82.90
29413;DHT22;16389;50.126;8.450;2022-07-22T10:46:52;32.70;81.80
29413;DHT22;16389;50.126;8.450;2022-07-22T10:49:23;32.70;82.50
29413;DHT22;16389;50.126;8.450;2022-07-22T10:52:08;33.00;82.40
29413;DHT22;16389;50.126;8.450;2022-07-22T10:57:38;33.50;79.50
29413;DHT22;16389;50.126;8.450;2022-07-22T11:00:05;33.90;77.60
29413;DHT22;16389;50.126;8.450;2022-07-22T11:02:33;34.00;75.90
29413;DHT22;16389;50.126;8.450;2022-07-22T11:04:59;33.90;75.00
29413;DHT22;16389;50.126;8.450;2022-07-22T11:07:24;34.20;75.90
29413;DHT22;16389;50.126;8.450;2022-07-22T11:09:53;34.20;74.10
29413;DHT22;16389;50.126;8.450;2022-07-22T11:12:18;34.50;73.80
29413;DHT22;16389;50.126;8.450;2022-07-22T11:14:44;34.70;73.00
29413;DHT22;16389;50.126;8.450;2022-07-22T11:17:12;35.00;71.30
29413;DHT22;16389;50.126;8.450;2022-07-22T11:19:40;35.20;71.20
29413;DHT22;16389;50.126;8.450;2022-07-22T11:22:11;35.80;68.20
29413;DHT22;16389;50.126;8.450;2022-07-22T11:24:38;35.70;67.10
29413;DHT22;16389;50.126;8.450;2022-07-22T11:27:04;36.10;65.50
29413;DHT22;16389;50.126;8.450;2022-07-22T11:29:39;36.20;66.50
29413;DHT22;16389;50.126;8.450;2022-07-22T11:32:08;36.60;63.10
29413;DHT22;16389;50.126;8.450;2022-07-22T11:34:41;36.70;63.30
29413;DHT22;16389;50.126;8.450;2022-07-22T11:37:14;37.00;61.40
29413;DHT22;16389;50.126;8.450;2022-07-22T11:39:40;37.20;62.00
29413;DHT22;16389;50.126;8.450;2022-07-22T11:42:06;37.30;61.30
29413;DHT22;16389;50.126;8.450;2022-07-22T11:44:34;37.60;59.50
29413;DHT22;16389;50.126;8.450;2022-07-22T11:47:01;37.90;58.70
29413;DHT22;16389;50.126;8.450;2022-07-22T11:49:29;38.00;57.60
29413;DHT22;16389;50.126;8.450;2022-07-22T11:51:55;38.00;59.40
29413;DHT22;16389;50.126;8.450;2022-07-22T11:54:21;38.20;55.90
29413;DHT22;16389;50.126;8.450;2022-07-22T11:56:47;37.80;59.30
29413;DHT22;16389;50.126;8.450;2022-07-22T11:59:14;38.00;57.50
29413;DHT22;16389;50.126;8.450;2022-07-22T12:01:41;38.60;56.40
29413;DHT22;16389;50.126;8.450;2022-07-22T12:04:10;38.60;57.20
29413;DHT22;16389;50.126;8.450;2022-07-22T12:06:38;39.00;56.20
29413;DHT22;16389;50.126;8.450;2022-07-22T12:09:16;39.00;55.90
29413;DHT22;16389;50.126;8.450;2022-07-22T12:11:45;39.10;55.00
29413;DHT22;16389;50.126;8.450;2022-07-22T12:14:14;39.50;53.30
29413;DHT22;16389;50.126;8.450;2022-07-22T12:16:40;39.30;53.00
29413;DHT22;16389;50.126;8.450;2022-07-22T12:19:11;39.60;52.40
29413;DHT22;16389;50.126;8.450;2022-07-22T12:22:08;39.20;52.70
29413;DHT22;16389;50.126;8.450;2022-07-22T12:24:36;38.90;53.10
29413;DHT22;16389;50.126;8.450;2022-07-22T12:27:10;38.90;54.10
29413;DHT22;16389;50.126;8.450;2022-07-22T12:32:05;39.00;52.90
29413;DHT22;16389;50.126;8.450;2022-07-22T12:34:33;39.40;54.50
29413;DHT22;16389;50.126;8.450;2022-07-22T12:37:01;39.80;54.20
29413;DHT22;16389;50.126;8.450;2022-07-22T12:39:36;40.10;53.40
29413;DHT22;16389;50.126;8.450;2022-07-22T12:42:02;40.50;51.80
29413;DHT22;16389;50.126;8.450;2022-07-22T12:44:27;40.40;52.70
29413;DHT22;16389;50.126;8.450;2022-07-22T12:46:54;41.10;51.30
29413;DHT22;16389;50.126;8.450;2022-07-22T12:49:22;40.80;52.20
29413;DHT22;16389;50.126;8.450;2022-07-22T12:52:11;40.80;51.40
29413;DHT22;16389;50.126;8.450;2022-07-22T12:54:39;40.80;50.60
29413;DHT22;16389;50.126;8.450;2022-07-22T12:57:07;41.10;50.80
29413;DHT22;16389;50.126;8.450;2022-07-22T12:59:33;41.20;50.90
29413;DHT22;16389;50.126;8.450;2022-07-22T13:01:59;40.90;49.90
29413;DHT22;16389;50.126;8.450;2022-07-22T13:04:25;40.70;51.10
29413;DHT22;16389;50.126;8.450;2022-07-22T13:06:51;41.00;49.10
29413;DHT22;16389;50.126;8.450;2022-07-22T13:09:17;41.00;48.90
29413;DHT22;16389;50.126;8.450;2022-07-22T13:11:44;41.20;49.00
29413;DHT22;16389;50.126;8.450;2022-07-22T13:14:11;40.80;47.50
29413;DHT22;16389;50.126;8.450;2022-07-22T13:16:37;40.80;48.70
29413;DHT22;16389;50.126;8.450;2022-07-22T13:19:03;41.60;48.00
29413;DHT22;16389;50.126;8.450;2022-07-22T13:21:29;41.70;48.20
29413;DHT22;16389;50.126;8.450;2022-07-22T13:23:55;41.60;47.60
29413;DHT22;16389;50.126;8.450;2022-07-22T13:26:21;41.80;47.50
29413;DHT22;16389;50.126;8.450;2022-07-22T13:28:47;42.10;47.80
29413;DHT22;16389;50.126;8.450;2022-07-22T13:31:13;42.90;47.00
29413;DHT22;16389;50.126;8.450;2022-07-22T13:33:38;42.80;47.00
29413;DHT22;16389;50.126;8.450;2022-07-22T13:36:04;42.90;45.70
29413;DHT22;16389;50.126;8.450;2022-07-22T13:38:30;42.70;44.70
29413;DHT22;16389;50.126;8.450;2022-07-22T13:40:56;42.70;45.50
29413;DHT22;16389;50.126;8.450;2022-07-22T13:43:23;42.70;45.80
29413;DHT22;16389;50.126;8.450;2022-07-22T13:45:50;42.90;44.60
29413;DHT22;16389;50.126;8.450;2022-07-22T13:48:16;42.80;45.00
29413;DHT22;16389;50.126;8.450;2022-07-22T13:50:44;43.10;44.70
29413;DHT22;16389;50.126;8.450;2022-07-22T13:53:10;43.40;44.50
29413;DHT22;16389;50.126;8.450;2022-07-22T13:55:41;42.90;42.90
29413;DHT22;16389;50.126;8.450;2022-07-22T13:58:07;43.20;44.30
29413;DHT22;16389;50.126;8.450;2022-07-22T14:00:33;43.20;44.30
29413;DHT22;16389;50.126;8.450;2022-07-22T14:02:59;44.10;44.00
29413;DHT22;16389;50.126;8.450;2022-07-22T14:05:24;44.50;44.00
29413;DHT22;16389;50.126;8.450;2022-07-22T14:07:52;44.50;43.80
29413;DHT22;16389;50.126;8.450;2022-07-22T14:10:17;44.60;42.80
29413;DHT22;16389;50.126;8.450;2022-07-22T14:12:44;45.00;42.90
29413;DHT22;16389;50.126;8.450;2022-07-22T14:15:10;45.20;41.40
29413;DHT22;16389;50.126;8.450;2022-07-22T14:17:35;45.00;42.20
29413;DHT22;16389;50.126;8.450;2022-07-22T14:20:02;44.80;41.60
29413;DHT22;16389;50.126;8.450;2022-07-22T14:22:29;44.70;42.30
29413;DHT22;16389;50.126;8.450;2022-07-22T14:24:56;44.50;42.60
29413;DHT22;16389;50.126;8.450;2022-07-22T14:27:21;44.60;42.30
29413;DHT22;16389;50.126;8.450;2022-07-22T14:29:47;44.40;43.20
29413;DHT22;16389;50.126;8.450;2022-07-22T14:32:12;44.10;41.50
29413;DHT22;16389;50.126;8.450;2022-07-22T14:34:38;43.30;42.70
29413;DHT22;16389;50.126;8.450;2022-07-22T14:37:04;42.60;43.90
29413;DHT22;16389;50.126;8.450;2022-07-22T14:39:29;42.50;45.10
29413;DHT22;16389;50.126;8.450;2022-07-22T14:41:55;42.80;45.20
29413;DHT22;16389;50.126;8.450;2022-07-22T14:44:21;42.80;42.90
29413;DHT22;16389;50.126;8.450;2022-07-22T14:46:46;42.70;41.70
29413;DHT22;16389;50.126;8.450;2022-07-22T14:49:12;42.60;43.90
29413;DHT22;16389;50.126;8.450;2022-07-22T14:51:38;42.70;43.10
29413;DHT22;16389;50.126;8.450;2022-07-22T14:54:04;42.70;43.00
29413;DHT22;16389;50.126;8.450;2022-07-22T14:56:31;42.90;42.00
29413;DHT22;16389;50.126;8.450;2022-07-22T14:58:57;42.60;42.00
29413;DHT22;16389;50.126;8.450;2022-07-22T15:01:23;42.20;42.80
29413;DHT22;16389;50.126;8.450;2022-07-22T15:03:48;42.10;43.80
29413;DHT22;16389;50.126;8.450;2022-07-22T15:06:14;42.50;43.50
29413;DHT22;16389;50.126;8.450;2022-07-22T15:08:39;42.60;42.90
29413;DHT22;16389;50.126;8.450;2022-07-22T15:11:05;42.80;42.60
29413;DHT22;16389;50.126;8.450;2022-07-22T15:13:31;42.80;42.00
29413;DHT22;16389;50.126;8.450;2022-07-22T15:15:57;42.80;42.40
29413;DHT22;16389;50.126;8.450;2022-07-22T15:18:23;42.80;42.10
29413;DHT22;16389;50.126;8.450;2022-07-22T15:20:49;42.60;42.20
29413;DHT22;16389;50.126;8.450;2022-07-22T15:23:15;42.50;42.30
29413;DHT22;16389;50.126;8.450;2022-07-22T15:25:41;42.60;42.90
29413;DHT22;16389;50.126;8.450;2022-07-22T15:28:06;42.60;42.30
29413;DHT22;16389;50.126;8.450;2022-07-22T15:30:32;42.80;42.00
29413;DHT22;16389;50.126;8.450;2022-07-22T15:32:58;42.60;43.60